createdAt,value
2023-03-17T17:13:15.397Z,15.22
2023-03-17T17:18:21.997Z,15.88
2023-03-17T17:23:29.249Z,16.22
2023-03-17T17:28:39.467Z,16.43
2023-03-17T17:33:45.236Z,16.54
2023-03-17T17:38:51.999Z,16.60
2023-03-17T17:43:59.860Z,16.64
2023-03-17T17:49:05.266Z,16.64
2023-03-17T17:54:10.920Z,16.63
2023-03-17T17:59:18.718Z,16.64
2023-03-17T18:04:24.629Z,16.59
2023-03-17T18:09:31.882Z,16.56
2023-03-17T18:14:39.946Z,16.54
2023-03-17T18:19:45.163Z,16.49
2023-03-17T18:24:50.567Z,16.44
2023-03-17T18:29:58.465Z,16.45
2023-03-17T18:35:07.075Z,16.43
2023-03-17T18:40:18.100Z,16.38
2023-03-17T18:45:26.742Z,16.35
2023-03-17T18:50:32.595Z,16.30
2023-03-17T18:55:37.912Z,16.25
2023-03-17T19:00:45.991Z,16.24
2023-03-17T19:05:51.668Z,16.20
2023-03-17T19:10:56.752Z,16.17
2023-03-17T19:16:04.643Z,16.14
2023-03-17T19:21:10.280Z,16.13
2023-03-17T19:26:15.506Z,16.13
2023-03-17T19:31:24.847Z,16.13
2023-03-17T19:36:30.142Z,16.13
2023-03-17T19:41:35.572Z,16.12
2023-03-17T19:46:43.313Z,16.13
2023-03-17T19:51:49.079Z,16.13
2023-03-17T19:56:54.520Z,16.13
2023-03-17T20:02:02.286Z,16.16
2023-03-17T20:07:07.558Z,16.14
2023-03-17T20:12:12.650Z,16.12
2023-03-17T20:17:20.968Z,16.13
2023-03-17T20:22:26.181Z,16.09
2023-03-17T20:27:32.215Z,16.06
2023-03-17T20:32:40.052Z,16.03
2023-03-17T20:37:45.899Z,15.96
2023-03-17T20:42:52.019Z,15.87
2023-03-17T20:48:00.869Z,15.77
2023-03-17T20:53:06.088Z,15.64
2023-03-17T20:58:13.612Z,15.50
2023-03-17T21:03:21.352Z,15.37
2023-03-17T21:08:26.726Z,15.19
2023-03-17T21:13:33.062Z,15.09
2023-03-17T21:18:40.906Z,15.00
2023-03-17T21:23:46.193Z,14.86
2023-03-17T21:28:52.666Z,14.79
2023-03-17T21:34:00.524Z,14.78
2023-03-17T21:39:06.722Z,14.74
2023-03-17T21:44:15.967Z,14.70
2023-03-17T21:49:24.871Z,14.70
2023-03-17T21:54:30.419Z,14.67
2023-03-17T21:59:35.840Z,14.62
2023-03-17T22:04:43.748Z,14.58
2023-03-17T22:09:48.976Z,14.56
2023-03-17T22:14:54.309Z,14.57
2023-03-17T22:20:02.322Z,14.58
2023-03-17T22:25:08.888Z,14.54
2023-03-17T22:30:15.738Z,14.47
2023-03-17T22:35:25.070Z,14.45
